createdAt,value
2023-01-19T00:01:19.034Z,77200.09
2023-01-19T00:08:21.005Z,77204.19
2023-01-19T00:15:23.010Z,77212.38
2023-01-19T00:22:26.593Z,77226.69
2023-01-19T00:29:31.116Z,77253.25
2023-01-19T00:36:33.508Z,77257.34
2023-01-19T00:43:35.740Z,77273.69
2023-01-19T00:50:37.846Z,77279.81
2023-01-19T00:57:40.385Z,77277.78
2023-01-19T01:04:42.440Z,77281.88
2023-01-19T01:11:44.662Z,77290.03
2023-01-19T01:18:46.598Z,77298.22
2023-01-19T01:25:48.772Z,77300.25
2023-01-19T01:32:50.937Z,77310.47
2023-01-19T01:39:52.910Z,77326.84
2023-01-19T01:46:54.972Z,77308.44
2023-01-19T01:54:11.320Z,77318.66
2023-01-19T02:01:32.124Z,77330.94
2023-01-19T02:08:58.557Z,77318.66
2023-01-19T02:16:03.589Z,77318.66
2023-01-19T02:23:08.919Z,77306.41
2023-01-19T02:30:11.693Z,77302.31
2023-01-19T02:37:16.110Z,77292.09
2023-01-19T02:44:18.968Z,77310.47
2023-01-19T02:51:23.681Z,77314.56
2023-01-19T02:58:43.726Z,77322.75
2023-01-19T03:05:57.133Z,77328.88
2023-01-19T03:13:10.709Z,77359.53
2023-01-19T03:20:14.265Z,77375.91
2023-01-19T03:27:21.461Z,77359.53
2023-01-19T03:34:24.244Z,77335.00
2023-01-19T03:41:28.701Z,77320.69
2023-01-19T03:48:31.417Z,77335.00
2023-01-19T03:55:34.386Z,77341.16
2023-01-19T04:02:36.369Z,77335.00
2023-01-19T04:09:38.336Z,77345.25
2023-01-19T04:16:40.216Z,77365.69
2023-01-19T04:23:42.248Z,77363.63
2023-01-19T04:30:44.236Z,77369.75
2023-01-19T04:37:46.225Z,77359.53
2023-01-19T04:44:48.205Z,77369.75
2023-01-19T04:51:50.164Z,77365.69
2023-01-19T04:58:52.085Z,77380.00
2023-01-19T05:05:54.277Z,77382.03
2023-01-19T05:12:56.252Z,77375.91
2023-01-19T05:19:58.205Z,77380.00
2023-01-19T05:27:00.204Z,77384.06
2023-01-19T05:34:02.135Z,77390.22
2023-01-19T05:41:04.576Z,77400.44
2023-01-19T05:48:09.353Z,77410.66
2023-01-19T05:55:11.598Z,77416.78
2023-01-19T06:02:13.765Z,77447.44
2023-01-19T06:09:15.795Z,77453.56
2023-01-19T06:16:17.946Z,77457.66
2023-01-19T06:23:21.243Z,77461.75
2023-01-19T06:30:23.298Z,77474.03
2023-01-19T06:37:36.591Z,77478.09
2023-01-19T06:44:38.841Z,77486.28
2023-01-19T06:51:41.152Z,77498.56
2023-01-19T06:58:43.619Z,77523.09
2023-01-19T07:05:45.571Z,77531.25
2023-01-19T07:12:47.747Z,77547.63
2023-01-19T07:19:50.348Z,77551.69
2023-01-19T07:26:52.300Z,77557.84
2023-01-19T07:33:54.229Z,77539.44
2023-01-19T07:41:03.740Z,77529.22
2023-01-19T07:48:05.551Z,77519.00
2023-01-19T07:55:08.138Z,77514.91
2023-01-19T08:02:11.152Z,77514.91
2023-01-19T08:09:13.359Z,77510.81
2023-01-19T08:16:15.307Z,77519.00
2023-01-19T08:23:18.363Z,77527.16
2023-01-19T08:30:20.849Z,77533.31
2023-01-19T08:37:22.861Z,77543.53
2023-01-19T08:44:24.751Z,77531.25
2023-01-19T08:51:26.780Z,77514.91
2023-01-19T08:58:28.977Z,77506.72
2023-01-19T09:05:35.781Z,77519.00
2023-01-19T09:12:38.180Z,77512.88
2023-01-19T09:19:41.011Z,77506.72
2023-01-19T09:26:43.407Z,77519.00
2023-01-19T09:33:45.550Z,77516.94
2023-01-19T09:40:53.743Z,77514.91
2023-01-19T09:47:56.297Z,77494.47
2023-01-19T09:54:58.827Z,77492.41
2023-01-19T10:02:07.200Z,77482.19
2023-01-19T10:09:22.221Z,77476.06
2023-01-19T10:16:39.491Z,77469.94
2023-01-19T10:23:47.998Z,77474.03
2023-01-19T10:30:51.263Z,77480.16
2023-01-19T10:38:01.954Z,77465.84
2023-01-19T10:45:05.332Z,77459.72
2023-01-19T10:52:08.512Z,77453.56
2023-01-19T10:59:47.731Z,77455.63
2023-01-19T11:07:27.092Z,77459.72
2023-01-19T11:14:30.642Z,77459.72
2023-01-19T11:21:33.990Z,77449.50
2023-01-19T11:28:45.043Z,77443.34
2023-01-19T11:35:47.132Z,77429.03
2023-01-19T11:42:49.131Z,77422.91
2023-01-19T11:49:58.937Z,77429.03
2023-01-19T11:57:02.161Z,77410.66
2023-01-19T12:04:28.330Z,77410.66
2023-01-19T12:11:36.489Z,77408.59
2023-01-19T12:18:45.289Z,77416.78
2023-01-19T12:26:11.805Z,77418.81
2023-01-19T12:33:33.585Z,77427.00
2023-01-19T12:40:35.584Z,77420.88
2023-01-19T12:47:38.555Z,77414.75
2023-01-19T12:54:51.461Z,77414.75
2023-01-19T13:02:18.672Z,77408.59
2023-01-19T13:09:35.134Z,77404.50
2023-01-19T13:16:37.206Z,77402.47
2023-01-19T13:23:50.267Z,77408.59
2023-01-19T13:30:56.766Z,77408.59
2023-01-19T13:37:59.738Z,77408.59
2023-01-19T13:45:04.924Z,77408.59
2023-01-19T13:52:21.671Z,77420.88
2023-01-19T13:59:23.631Z,77420.88
2023-01-19T14:06:45.699Z,77420.88
2023-01-19T14:13:47.922Z,77429.03
2023-01-19T14:21:01.385Z,77414.75
2023-01-19T14:28:41.330Z,77404.50
2023-01-19T14:35:43.858Z,77406.56
2023-01-19T14:43:01.044Z,77416.78
2023-01-19T14:50:25.163Z,77422.91
2023-01-19T14:57:28.585Z,77433.13
2023-01-19T15:04:36.474Z,77433.13
2023-01-19T15:11:38.622Z,77435.19
2023-01-19T15:18:42.765Z,77447.44
2023-01-19T15:25:46.488Z,77467.88
2023-01-19T15:32:51.021Z,77488.34
2023-01-19T15:39:53.236Z,77494.47
2023-01-19T15:46:59.288Z,77506.72
2023-01-19T15:54:05.741Z,77496.50
2023-01-19T16:01:15.016Z,77506.72
2023-01-19T16:08:17.905Z,77521.03
2023-01-19T16:15:21.525Z,77535.34
2023-01-19T16:22:23.620Z,77527.16
2023-01-19T16:29:25.574Z,77551.69
2023-01-19T16:36:32.551Z,77547.63
2023-01-19T16:43:35.700Z,77545.56
2023-01-19T16:50:37.819Z,77527.16
2023-01-19T16:57:40.127Z,77535.34
2023-01-19T17:04:42.616Z,77537.38
2023-01-19T17:11:46.718Z,77543.53
2023-01-19T17:18:49.800Z,77547.63
2023-01-19T17:25:56.137Z,77531.25
2023-01-19T17:32:58.445Z,77516.94
2023-01-19T17:40:01.150Z,77519.00
2023-01-19T17:47:03.942Z,77525.13
2023-01-19T17:54:06.756Z,77527.16
2023-01-19T18:01:20.718Z,77543.53
2023-01-19T18:08:23.892Z,77547.63
2023-01-19T18:15:26.707Z,77551.69
2023-01-19T18:22:29.551Z,77557.84
2023-01-19T18:29:32.395Z,77566.00
2023-01-19T18:36:35.118Z,77555.78
2023-01-19T18:43:38.160Z,77547.63
2023-01-19T18:50:41.334Z,77547.63
2023-01-19T18:57:47.390Z,77555.78
2023-01-19T19:04:50.396Z,77539.44
2023-01-19T19:11:54.986Z,77527.16
2023-01-19T19:18:58.027Z,77541.47
2023-01-19T19:26:10.045Z,77543.53
2023-01-19T19:33:13.056Z,77531.25
2023-01-19T19:40:16.559Z,77529.22
2023-01-19T19:47:20.035Z,77531.25
2023-01-19T19:54:24.295Z,77535.34
2023-01-19T20:01:32.894Z,77543.53
2023-01-19T20:08:36.494Z,77555.78
2023-01-19T20:15:40.188Z,77545.56
2023-01-19T20:22:42.829Z,77551.69
2023-01-19T20:29:52.767Z,77555.78
2023-01-19T20:36:55.848Z,77559.88
2023-01-19T20:43:59.153Z,77574.19
2023-01-19T20:51:04.532Z,77578.28
2023-01-19T20:58:10.859Z,77588.50
2023-01-19T21:05:13.836Z,77596.69
2023-01-19T21:12:16.600Z,77592.59
2023-01-19T21:19:19.832Z,77604.84
2023-01-19T21:26:23.823Z,77611.00
2023-01-19T21:33:26.131Z,77617.13
2023-01-19T21:40:28.314Z,77627.34
2023-01-19T21:47:30.273Z,77629.38
2023-01-19T21:54:32.255Z,77635.50
2023-01-19T22:01:35.392Z,77641.66
2023-01-19T22:08:37.985Z,77641.66
2023-01-19T22:15:40.010Z,77658.00
2023-01-19T22:22:41.890Z,77647.78
2023-01-19T22:29:43.894Z,77649.81
2023-01-19T22:36:46.027Z,77641.66
2023-01-19T22:43:49.140Z,77649.81
2023-01-19T22:50:56.350Z,77649.81
2023-01-19T22:57:58.365Z,77645.75
2023-01-19T23:05:00.587Z,77653.91
2023-01-19T23:12:02.605Z,77651.88
2023-01-19T23:19:05.143Z,77649.81
2023-01-19T23:26:18.746Z,77653.91
2023-01-19T23:33:20.939Z,77662.09
2023-01-19T23:40:22.970Z,77670.28
2023-01-19T23:47:24.908Z,77678.44
2023-01-19T23:54:26.880Z,77682.53
